sensor_id;sensor_type;location;lat;lon;timestamp;temperature;humidity
40660;DHT22;26753;45.544;9.232;2023-05-10T00:00:45;17.00;99.90
40660;DHT22;26753;45.544;9.232;2023-05-10T00:03:11;16.90;99.90
40660;DHT22;26753;45.544;9.232;2023-05-10T00:05:37;17.00;99.90
40660;DHT22;26753;45.544;9.232;2023-05-10T00:08:05;16.90;99.90
40660;DHT22;26753;45.544;9.232;2023-05-10T00:10:34;17.40;99.90
40660;DHT22;26753;45.544;9.232;2023-05-10T00:12:59;16.80;99.90
40660;DHT22;26753;45.544;9.232;2023-05-10T00:15:28;16.80;99.90
40660;DHT22;26753;45.544;9.232;2023-05-10T00:18:04;16.70;99.90
40660;DHT22;26753;45.544;9.232;2023-05-10T00:20:29;16.80;99.90
40660;DHT22;26753;45.544;9.232;2023-05-10T00:22:57;16.70;99.90
40660;DHT22;26753;45.544;9.232;2023-05-10T00:25:26;16.80;99.90
40660;DHT22;26753;45.544;9.232;2023-05-10T00:28:15;16.80;99.90
40660;DHT22;26753;45.544;9.232;2023-05-10T00:30:50;16.80;99.90
40660;DHT22;26753;45.544;9.232;2023-05-10T00:33:53;16.80;99.90
40660;DHT22;26753;45.544;9.232;2023-05-10T00:42:54;16.70;99.90
40660;DHT22;26753;45.544;9.232;2023-05-10T00:48:21;16.60;99.90
40660;DHT22;26753;45.544;9.232;2023-05-10T00:54:19;16.60;99.90
40660;DHT22;26753;45.544;9.232;2023-05-10T00:56:57;16.60;99.90
40660;DHT22;26753;45.544;9.232;2023-05-10T01:02:35;16.50;99.90
40660;DHT22;26753;45.544;9.232;2023-05-10T01:08:31;16.60;99.90
40660;DHT22;26753;45.544;9.232;2023-05-10T01:10:57;16.50;99.90
40660;DHT22;26753;45.544;9.232;2023-05-10T01:13:44;16.60;99.90
40660;DHT22;26753;45.544;9.232;2023-05-10T01:16:09;16.60;99.90
40660;DHT22;26753;45.544;9.232;2023-05-10T01:18:41;16.50;99.90
40660;DHT22;26753;45.544;9.232;2023-05-10T01:21:10;16.50;99.90
40660;DHT22;26753;45.544;9.232;2023-05-10T01:26:29;16.40;99.90
40660;DHT22;26753;45.544;9.232;2023-05-10T01:32:00;16.40;99.90
40660;DHT22;26753;45.544;9.232;2023-05-10T01:34:37;16.40;99.90
40660;DHT22;26753;45.544;9.232;2023-05-10T01:37:13;16.50;99.90
40660;DHT22;26753;45.544;9.232;2023-05-10T01:40:16;16.50;99.90
40660;DHT22;26753;45.544;9.232;2023-05-10T01:55:46;16.30;99.90
40660;DHT22;26753;45.544;9.232;2023-05-10T02:01:42;16.20;99.90
40660;DHT22;26753;45.544;9.232;2023-05-10T02:19:59;16.00;99.90
40660;DHT22;26753;45.544;9.232;2023-05-10T02:22:27;16.00;99.90
40660;DHT22;26753;45.544;9.232;2023-05-10T02:24:58;15.90;99.90
40660;DHT22;26753;45.544;9.232;2023-05-10T02:27:34;16.00;99.90
40660;DHT22;26753;45.544;9.232;2023-05-10T02:45:31;15.90;99.90
40660;DHT22;26753;45.544;9.232;2023-05-10T02:48:36;15.90;99.90
40660;DHT22;26753;45.544;9.232;2023-05-10T02:51:30;16.00;99.90
40660;DHT22;26753;45.544;9.232;2023-05-10T03:00:28;16.00;99.90
40660;DHT22;26753;45.544;9.232;2023-05-10T03:03:15;15.90;99.90
40660;DHT22;26753;45.544;9.232;2023-05-10T03:06:00;15.90;99.90
40660;DHT22;26753;45.544;9.232;2023-05-10T03:08:26;15.90;99.90
40660;DHT22;26753;45.544;9.232;2023-05-10T03:13:33;16.00;99.90
40660;DHT22;26753;45.544;9.232;2023-05-10T03:24:07;15.90;99.90
40660;DHT22;26753;45.544;9.232;2023-05-10T03:26:33;16.00;99.90
40660;DHT22;26753;45.544;9.232;2023-05-10T03:29:08;15.90;99.90
40660;DHT22;26753;45.544;9.232;2023-05-10T03:34:48;15.90;99.90
40660;DHT22;26753;45.544;9.232;2023-05-10T03:37:13;15.80;99.90
40660;DHT22;26753;45.544;9.232;2023-05-10T03:39:42;15.80;99.90
40660;DHT22;26753;45.544;9.232;2023-05-10T03:42:10;15.90;99.90
40660;DHT22;26753;45.544;9.232;2023-05-10T03:44:46;15.90;99.90
40660;DHT22;26753;45.544;9.232;2023-05-10T03:47:38;15.90;99.90
40660;DHT22;26753;45.544;9.232;2023-05-10T03:50:10;15.90;99.90
40660;DHT22;26753;45.544;9.232;2023-05-10T03:52:38;15.80;99.90
40660;DHT22;26753;45.544;9.232;2023-05-10T03:55:04;15.90;99.90
40660;DHT22;26753;45.544;9.232;2023-05-10T03:57:30;15.90;99.90
40660;DHT22;26753;45.544;9.232;2023-05-10T03:59:56;15.90;99.90
40660;DHT22;26753;45.544;9.232;2023-05-10T04:02:22;15.90;99.90
40660;DHT22;26753;45.544;9.232;2023-05-10T04:04:47;15.90;99.90
40660;DHT22;26753;45.544;9.232;2023-05-10T04:07:16;15.90;99.90
40660;DHT22;26753;45.544;9.232;2023-05-10T04:09:48;15.90;99.90
40660;DHT22;26753;45.544;9.232;2023-05-10T04:12:23;15.90;99.90
40660;DHT22;26753;45.544;9.232;2023-05-10T04:14:48;16.00;99.90
40660;DHT22;26753;45.544;9.232;2023-05-10T04:17:14;15.90;99.90
40660;DHT22;26753;45.544;9.232;2023-05-10T04:19:39;15.90;99.90
40660;DHT22;26753;45.544;9.232;2023-05-10T04:22:05;15.80;99.90
40660;DHT22;26753;45.544;9.232;2023-05-10T04:24:31;15.90;99.90
40660;DHT22;26753;45.544;9.232;2023-05-10T04:26:56;15.90;99.90
40660;DHT22;26753;45.544;9.232;2023-05-10T04:29:22;15.90;99.90
40660;DHT22;26753;45.544;9.232;2023-05-10T04:31:48;15.80;99.90
40660;DHT22;26753;45.544;9.232;2023-05-10T04:34:17;15.80;99.90
40660;DHT22;26753;45.544;9.232;2023-05-10T04:36:42;15.80;99.90
40660;DHT22;26753;45.544;9.232;2023-05-10T04:39:08;15.80;99.90
40660;DHT22;26753;45.544;9.232;2023-05-10T04:41:37;15.80;99.90
40660;DHT22;26753;45.544;9.232;2023-05-10T04:44:04;15.80;99.90
40660;DHT22;26753;45.544;9.232;2023-05-10T04:46:29;15.70;99.90
40660;DHT22;26753;45.544;9.232;2023-05-10T04:48:55;15.80;99.90
40660;DHT22;26753;45.544;9.232;2023-05-10T04:51:24;15.70;99.90
40660;DHT22;26753;45.544;9.232;2023-05-10T04:53:58;15.60;99.90
40660;DHT22;26753;45.544;9.232;2023-05-10T04:56:27;15.60;99.90
40660;DHT22;26753;45.544;9.232;2023-05-10T04:58:56;15.60;99.90
40660;DHT22;26753;45.544;9.232;2023-05-10T05:01:21;15.60;99.90
40660;DHT22;26753;45.544;9.232;2023-05-10T05:03:48;15.50;99.90
40660;DHT22;26753;45.544;9.232;2023-05-10T05:06:19;15.60;99.90
40660;DHT22;26753;45.544;9.232;2023-05-10T05:08:50;15.60;99.90
40660;DHT22;26753;45.544;9.232;2023-05-10T05:11:21;15.70;99.90
40660;DHT22;26753;45.544;9.232;2023-05-10T05:13:47;15.70;99.90
40660;DHT22;26753;45.544;9.232;2023-05-10T05:16:13;15.70;99.90
40660;DHT22;26753;45.544;9.232;2023-05-10T05:18:38;15.70;99.90
40660;DHT22;26753;45.544;9.232;2023-05-10T05:21:14;15.60;99.90
40660;DHT22;26753;45.544;9.232;2023-05-10T05:23:42;15.60;99.90
40660;DHT22;26753;45.544;9.232;2023-05-10T05:26:11;15.60;99.90
40660;DHT22;26753;45.544;9.232;2023-05-10T05:28:37;15.70;99.90
40660;DHT22;26753;45.544;9.232;2023-05-10T05:31:03;15.70;99.90
40660;DHT22;26753;45.544;9.232;2023-05-10T05:33:29;15.70;99.90
40660;DHT22;26753;45.544;9.232;2023-05-10T05:35:55;15.60;99.90
40660;DHT22;26753;45.544;9.232;2023-05-10T05:38:20;15.70;99.90
40660;DHT22;26753;45.544;9.232;2023-05-10T05:40:46;15.70;99.90
40660;DHT22;26753;45.544;9.232;2023-05-10T05:43:12;15.70;99.90
40660;DHT22;26753;45.544;9.232;2023-05-10T05:45:37;15.70;99.90
40660;DHT22;26753;45.544;9.232;2023-05-10T05:48:06;15.70;99.90
40660;DHT22;26753;45.544;9.232;2023-05-10T05:50:32;15.80;99.90
40660;DHT22;26753;45.544;9.232;2023-05-10T05:52:58;15.70;99.90
40660;DHT22;26753;45.544;9.232;2023-05-10T05:55:23;15.80;99.90
40660;DHT22;26753;45.544;9.232;2023-05-10T05:57:51;15.80;99.90
40660;DHT22;26753;45.544;9.232;2023-05-10T06:00:16;15.80;99.90
40660;DHT22;26753;45.544;9.232;2023-05-10T06:02:42;15.90;99.90
40660;DHT22;26753;45.544;9.232;2023-05-10T06:05:08;15.90;99.90
40660;DHT22;26753;45.544;9.232;2023-05-10T06:07:37;16.00;99.90
40660;DHT22;26753;45.544;9.232;2023-05-10T06:10:05;16.00;99.90
40660;DHT22;26753;45.544;9.232;2023-05-10T06:12:31;16.00;99.90
40660;DHT22;26753;45.544;9.232;2023-05-10T06:14:57;16.00;99.90
40660;DHT22;26753;45.544;9.232;2023-05-10T06:17:26;16.00;99.90
40660;DHT22;26753;45.544;9.232;2023-05-10T06:19:51;16.10;99.90
40660;DHT22;26753;45.544;9.232;2023-05-10T06:22:17;16.00;99.90
40660;DHT22;26753;45.544;9.232;2023-05-10T06:24:43;16.00;99.90
40660;DHT22;26753;45.544;9.232;2023-05-10T06:27:08;16.10;99.90
40660;DHT22;26753;45.544;9.232;2023-05-10T06:29:37;16.20;99.90
40660;DHT22;26753;45.544;9.232;2023-05-10T06:34:53;16.20;99.90
40660;DHT22;26753;45.544;9.232;2023-05-10T06:37:24;16.30;99.90
40660;DHT22;26753;45.544;9.232;2023-05-10T06:39:53;16.30;99.90
40660;DHT22;26753;45.544;9.232;2023-05-10T06:42:18;16.30;99.90
40660;DHT22;26753;45.544;9.232;2023-05-10T06:44:44;16.30;99.90
40660;DHT22;26753;45.544;9.232;2023-05-10T06:47:10;16.20;99.90
40660;DHT22;26753;45.544;9.232;2023-05-10T06:49:41;16.20;99.90
40660;DHT22;26753;45.544;9.232;2023-05-10T06:52:06;16.30;99.90
40660;DHT22;26753;45.544;9.232;2023-05-10T06:54:33;16.20;99.90
40660;DHT22;26753;45.544;9.232;2023-05-10T06:56:58;17.60;99.90
40660;DHT22;26753;45.544;9.232;2023-05-10T06:59:24;16.20;99.90
40660;DHT22;26753;45.544;9.232;2023-05-10T07:01:50;16.30;99.90
40660;DHT22;26753;45.544;9.232;2023-05-10T07:04:37;16.20;99.90
40660;DHT22;26753;45.544;9.232;2023-05-10T07:07:02;16.10;99.90
40660;DHT22;26753;45.544;9.232;2023-05-10T07:09:28;16.00;99.90
40660;DHT22;26753;45.544;9.232;2023-05-10T07:11:56;16.10;99.90
40660;DHT22;26753;45.544;9.232;2023-05-10T07:14:23;16.20;99.90
40660;DHT22;26753;45.544;9.232;2023-05-10T07:16:48;16.10;99.90
40660;DHT22;26753;45.544;9.232;2023-05-10T07:19:14;16.00;99.90
40660;DHT22;26753;45.544;9.232;2023-05-10T07:21:40;15.90;99.90
40660;DHT22;26753;45.544;9.232;2023-05-10T07:24:08;15.90;99.90
40660;DHT22;26753;45.544;9.232;2023-05-10T07:26:37;15.90;99.90
40660;DHT22;26753;45.544;9.232;2023-05-10T07:29:02;15.90;99.90
40660;DHT22;26753;45.544;9.232;2023-05-10T07:31:28;15.90;99.90
40660;DHT22;26753;45.544;9.232;2023-05-10T07:34:02;16.00;99.90
40660;DHT22;26753;45.544;9.232;2023-05-10T07:36:28;16.00;99.90
40660;DHT22;26753;45.544;9.232;2023-05-10T07:38:54;16.00;99.90
40660;DHT22;26753;45.544;9.232;2023-05-10T07:41:20;15.90;99.90
40660;DHT22;26753;45.544;9.232;2023-05-10T07:43:48;15.90;99.90
40660;DHT22;26753;45.544;9.232;2023-05-10T07:46:14;16.00;99.90
40660;DHT22;26753;45.544;9.232;2023-05-10T07:48:40;16.00;99.90
40660;DHT22;26753;45.544;9.232;2023-05-10T07:51:05;16.00;99.90
40660;DHT22;26753;45.544;9.232;2023-05-10T07:53:34;16.10;99.90
40660;DHT22;26753;45.544;9.232;2023-05-10T07:56:19;16.30;99.90
40660;DHT22;26753;45.544;9.232;2023-05-10T07:58:44;16.30;99.90
40660;DHT22;26753;45.544;9.232;2023-05-10T08:01:10;16.50;99.90
40660;DHT22;26753;45.544;9.232;2023-05-10T08:03:36;16.60;99.90
40660;DHT22;26753;45.544;9.232;2023-05-10T08:06:01;16.60;99.90
40660;DHT22;26753;45.544;9.232;2023-05-10T08:08:27;16.80;99.90
40660;DHT22;26753;45.544;9.232;2023-05-10T08:10:53;17.00;99.90
40660;DHT22;26753;45.544;9.232;2023-05-10T08:13:18;17.20;99.90
40660;DHT22;26753;45.544;9.232;2023-05-10T08:15:50;17.40;99.90
40660;DHT22;26753;45.544;9.232;2023-05-10T08:18:24;17.40;99.90
40660;DHT22;26753;45.544;9.232;2023-05-10T08:20:50;17.60;99.90
40660;DHT22;26753;45.544;9.232;2023-05-10T08:23:19;17.50;99.90
40660;DHT22;26753;45.544;9.232;2023-05-10T08:25:47;17.70;99.90
40660;DHT22;26753;45.544;9.232;2023-05-10T08:28:13;17.70;99.90
40660;DHT22;26753;45.544;9.232;2023-05-10T08:30:38;17.60;99.90
40660;DHT22;26753;45.544;9.232;2023-05-10T08:33:06;17.50;99.90
40660;DHT22;26753;45.544;9.232;2023-05-10T08:35:32;17.40;99.90
40660;DHT22;26753;45.544;9.232;2023-05-10T08:37:59;17.40;99.90
40660;DHT22;26753;45.544;9.232;2023-05-10T08:40:26;17.70;99.90
40660;DHT22;26753;45.544;9.232;2023-05-10T08:43:13;17.80;99.90
40660;DHT22;26753;45.544;9.232;2023-05-10T08:45:38;17.90;99.90
40660;DHT22;26753;45.544;9.232;2023-05-10T08:48:07;18.00;99.90
40660;DHT22;26753;45.544;9.232;2023-05-10T08:50:35;18.00;99.90
40660;DHT22;26753;45.544;9.232;2023-05-10T08:53:00;18.00;99.90
40660;DHT22;26753;45.544;9.232;2023-05-10T08:55:32;18.10;99.90
40660;DHT22;26753;45.544;9.232;2023-05-10T08:58:02;18.00;99.90
40660;DHT22;26753;45.544;9.232;2023-05-10T09:00:28;18.20;99.90
40660;DHT22;26753;45.544;9.232;2023-05-10T09:02:54;18.30;99.90
40660;DHT22;26753;45.544;9.232;2023-05-10T09:05:20;18.30;99.90
40660;DHT22;26753;45.544;9.232;2023-05-10T09:07:51;18.30;99.90
40660;DHT22;26753;45.544;9.232;2023-05-10T09:10:17;18.40;99.90
40660;DHT22;26753;45.544;9.232;2023-05-10T09:12:43;18.50;99.90
40660;DHT22;26753;45.544;9.232;2023-05-10T09:15:14;18.50;99.90
40660;DHT22;26753;45.544;9.232;2023-05-10T09:17:41;18.40;99.90
40660;DHT22;26753;45.544;9.232;2023-05-10T09:20:10;18.60;99.90
40660;DHT22;26753;45.544;9.232;2023-05-10T09:22:38;18.80;99.90
40660;DHT22;26753;45.544;9.232;2023-05-10T09:25:22;18.90;99.90
40660;DHT22;26753;45.544;9.232;2023-05-10T09:27:48;19.00;99.90
40660;DHT22;26753;45.544;9.232;2023-05-10T09:30:17;19.00;99.90
40660;DHT22;26753;45.544;9.232;2023-05-10T09:32:48;19.00;99.90
40660;DHT22;26753;45.544;9.232;2023-05-10T09:35:15;18.80;99.90
40660;DHT22;26753;45.544;9.232;2023-05-10T09:37:44;18.80;99.90
40660;DHT22;26753;45.544;9.232;2023-05-10T09:40:12;18.80;99.90
40660;DHT22;26753;45.544;9.232;2023-05-10T09:42:42;18.70;99.90
40660;DHT22;26753;45.544;9.232;2023-05-10T09:45:10;18.60;99.90
40660;DHT22;26753;45.544;9.232;2023-05-10T09:47:36;18.70;99.90
40660;DHT22;26753;45.544;9.232;2023-05-10T09:50:02;18.70;99.90
40660;DHT22;26753;45.544;9.232;2023-05-10T09:52:29;19.00;99.90
40660;DHT22;26753;45.544;9.232;2023-05-10T09:54:55;19.30;99.90
40660;DHT22;26753;45.544;9.232;2023-05-10T09:57:21;19.50;99.90
40660;DHT22;26753;45.544;9.232;2023-05-10T09:59:48;19.80;99.90
40660;DHT22;26753;45.544;9.232;2023-05-10T10:02:14;20.00;99.90
40660;DHT22;26753;45.544;9.232;2023-05-10T10:04:48;20.30;99.90
40660;DHT22;26753;45.544;9.232;2023-05-10T10:07:14;20.60;99.90
40660;DHT22;26753;45.544;9.232;2023-05-10T10:09:40;20.70;99.90
40660;DHT22;26753;45.544;9.232;2023-05-10T10:12:05;20.70;99.90
40660;DHT22;26753;45.544;9.232;2023-05-10T10:14:31;20.40;99.90
40660;DHT22;26753;45.544;9.232;2023-05-10T10:16:57;20.30;99.90
40660;DHT22;26753;45.544;9.232;2023-05-10T10:19:27;19.80;99.90
40660;DHT22;26753;45.544;9.232;2023-05-10T10:21:53;19.30;99.90
40660;DHT22;26753;45.544;9.232;2023-05-10T10:24:19;19.10;99.90
40660;DHT22;26753;45.544;9.232;2023-05-10T10:26:44;18.80;99.90
40660;DHT22;26753;45.544;9.232;2023-05-10T10:29:21;18.60;99.90
40660;DHT22;26753;45.544;9.232;2023-05-10T10:34:25;18.40;99.90
40660;DHT22;26753;45.544;9.232;2023-05-10T10:36:53;18.30;99.90
40660;DHT22;26753;45.544;9.232;2023-05-10T10:39:19;18.30;99.90
40660;DHT22;26753;45.544;9.232;2023-05-10T10:41:53;18.30;99.90
40660;DHT22;26753;45.544;9.232;2023-05-10T10:44:26;18.40;99.90
40660;DHT22;26753;45.544;9.232;2023-05-10T10:49:24;18.30;99.90
40660;DHT22;26753;45.544;9.232;2023-05-10T10:54:34;18.00;99.90
40660;DHT22;26753;45.544;9.232;2023-05-10T10:57:10;18.00;99.90
40660;DHT22;26753;45.544;9.232;2023-05-10T10:59:35;18.00;99.90
40660;DHT22;26753;45.544;9.232;2023-05-10T11:02:01;18.00;99.90
40660;DHT22;26753;45.544;9.232;2023-05-10T11:04:27;18.00;99.90
40660;DHT22;26753;45.544;9.232;2023-05-10T11:07:00;17.90;99.90
40660;DHT22;26753;45.544;9.232;2023-05-10T11:09:39;17.80;99.90
40660;DHT22;26753;45.544;9.232;2023-05-10T11:12:07;17.70;99.90
40660;DHT22;26753;45.544;9.232;2023-05-10T11:14:33;17.70;99.90
40660;DHT22;26753;45.544;9.232;2023-05-10T11:16:59;17.60;99.90
40660;DHT22;26753;45.544;9.232;2023-05-10T11:19:29;17.50;99.90
40660;DHT22;26753;45.544;9.232;2023-05-10T11:24:29;17.30;99.90
40660;DHT22;26753;45.544;9.232;2023-05-10T11:26:55;17.20;99.90
40660;DHT22;26753;45.544;9.232;2023-05-10T11:29:21;17.00;99.90
40660;DHT22;26753;45.544;9.232;2023-05-10T11:31:53;16.90;99.90
40660;DHT22;26753;45.544;9.232;2023-05-10T11:34:25;16.80;99.90
40660;DHT22;26753;45.544;9.232;2023-05-10T11:36:52;16.80;99.90
40660;DHT22;26753;45.544;9.232;2023-05-10T11:39:19;16.90;99.90
40660;DHT22;26753;45.544;9.232;2023-05-10T11:41:46;16.80;99.90
40660;DHT22;26753;45.544;9.232;2023-05-10T11:44:12;16.80;99.90
40660;DHT22;26753;45.544;9.232;2023-05-10T11:46:38;16.70;99.90
40660;DHT22;26753;45.544;9.232;2023-05-10T11:49:03;16.80;99.90
40660;DHT22;26753;45.544;9.232;2023-05-10T11:51:35;16.80;99.90
40660;DHT22;26753;45.544;9.232;2023-05-10T11:54:01;16.90;99.90
40660;DHT22;26753;45.544;9.232;2023-05-10T11:56:30;16.90;99.90
40660;DHT22;26753;45.544;9.232;2023-05-10T11:58:57;17.20;99.90
40660;DHT22;26753;45.544;9.232;2023-05-10T12:01:23;17.10;99.90
40660;DHT22;26753;45.544;9.232;2023-05-10T12:03:50;17.00;99.90
40660;DHT22;26753;45.544;9.232;2023-05-10T12:06:17;17.00;99.90
40660;DHT22;26753;45.544;9.232;2023-05-10T12:08:46;16.90;99.90
40660;DHT22;26753;45.544;9.232;2023-05-10T12:11:12;16.90;99.90
40660;DHT22;26753;45.544;9.232;2023-05-10T12:13:43;16.90;99.90
40660;DHT22;26753;45.544;9.232;2023-05-10T12:18:43;16.70;99.90
40660;DHT22;26753;45.544;9.232;2023-05-10T12:21:09;16.60;99.90
40660;DHT22;26753;45.544;9.232;2023-05-10T12:23:35;16.60;99.90
40660;DHT22;26753;45.544;9.232;2023-05-10T12:26:02;16.60;99.90
40660;DHT22;26753;45.544;9.232;2023-05-10T12:28:29;16.50;99.90
40660;DHT22;26753;45.544;9.232;2023-05-10T12:30:55;16.60;99.90
40660;DHT22;26753;45.544;9.232;2023-05-10T12:33:22;16.50;99.90
40660;DHT22;26753;45.544;9.232;2023-05-10T12:35:49;16.50;99.90
40660;DHT22;26753;45.544;9.232;2023-05-10T12:38:25;16.50;99.90
40660;DHT22;26753;45.544;9.232;2023-05-10T12:40:51;16.60;99.90
40660;DHT22;26753;45.544;9.232;2023-05-10T12:43:16;16.60;99.90
40660;DHT22;26753;45.544;9.232;2023-05-10T12:45:42;16.80;99.90
40660;DHT22;26753;45.544;9.232;2023-05-10T12:48:13;16.90;99.90
40660;DHT22;26753;45.544;9.232;2023-05-10T12:50:38;17.20;99.90
40660;DHT22;26753;45.544;9.232;2023-05-10T12:53:04;17.60;99.90
40660;DHT22;26753;45.544;9.232;2023-05-10T12:55:30;18.00;99.90
40660;DHT22;26753;45.544;9.232;2023-05-10T12:57:55;18.60;99.90
40660;DHT22;26753;45.544;9.232;2023-05-10T13:00:21;19.60;99.90
40660;DHT22;26753;45.544;9.232;2023-05-10T13:02:47;20.80;99.90
40660;DHT22;26753;45.544;9.232;2023-05-10T13:05:12;21.70;99.90
40660;DHT22;26753;45.544;9.232;2023-05-10T13:07:38;22.30;99.90
40660;DHT22;26753;45.544;9.232;2023-05-10T13:10:09;23.00;99.90
40660;DHT22;26753;45.544;9.232;2023-05-10T13:12:35;23.60;99.90
40660;DHT22;26753;45.544;9.232;2023-05-10T13:15:04;24.20;99.90
40660;DHT22;26753;45.544;9.232;2023-05-10T13:17:31;24.00;99.90
40660;DHT22;26753;45.544;9.232;2023-05-10T13:19:56;23.60;99.90
40660;DHT22;26753;45.544;9.232;2023-05-10T13:22:32;23.30;99.90
40660;DHT22;26753;45.544;9.232;2023-05-10T13:24:58;23.10;99.90
40660;DHT22;26753;45.544;9.232;2023-05-10T13:27:26;23.00;99.90
40660;DHT22;26753;45.544;9.232;2023-05-10T13:29:52;22.90;99.90
40660;DHT22;26753;45.544;9.232;2023-05-10T13:32:18;22.80;99.90
40660;DHT22;26753;45.544;9.232;2023-05-10T13:34:44;22.60;99.90
40660;DHT22;26753;45.544;9.232;2023-05-10T13:37:09;22.20;99.90
40660;DHT22;26753;45.544;9.232;2023-05-10T13:39:35;21.90;99.90
40660;DHT22;26753;45.544;9.232;2023-05-10T13:42:05;21.30;99.90
40660;DHT22;26753;45.544;9.232;2023-05-10T13:44:40;20.80;99.90
40660;DHT22;26753;45.544;9.232;2023-05-10T13:47:06;20.50;99.90
40660;DHT22;26753;45.544;9.232;2023-05-10T13:49:31;20.20;99.90
40660;DHT22;26753;45.544;9.232;2023-05-10T13:51:57;19.80;99.90
40660;DHT22;26753;45.544;9.232;2023-05-10T13:54:35;19.70;99.90
40660;DHT22;26753;45.544;9.232;2023-05-10T13:57:01;19.60;99.90
40660;DHT22;26753;45.544;9.232;2023-05-10T13:59:27;19.60;99.90
40660;DHT22;26753;45.544;9.232;2023-05-10T14:01:52;19.40;99.90
40660;DHT22;26753;45.544;9.232;2023-05-10T14:04:21;19.50;99.90
40660;DHT22;26753;45.544;9.232;2023-05-10T14:06:46;19.70;99.90
40660;DHT22;26753;45.544;9.232;2023-05-10T14:09:12;19.50;99.90
40660;DHT22;26753;45.544;9.232;2023-05-10T14:11:38;19.60;99.90
40660;DHT22;26753;45.544;9.232;2023-05-10T14:14:10;19.50;99.90
40660;DHT22;26753;45.544;9.232;2023-05-10T14:16:35;19.50;99.90
40660;DHT22;26753;45.544;9.232;2023-05-10T14:19:01;19.50;99.90
40660;DHT22;26753;45.544;9.232;2023-05-10T14:21:27;19.50;99.90
40660;DHT22;26753;45.544;9.232;2023-05-10T14:23:55;19.30;99.90
40660;DHT22;26753;45.544;9.232;2023-05-10T14:26:21;19.30;99.90
40660;DHT22;26753;45.544;9.232;2023-05-10T14:28:47;19.20;99.90
40660;DHT22;26753;45.544;9.232;2023-05-10T14:31:13;19.10;99.90
40660;DHT22;26753;45.544;9.232;2023-05-10T14:33:39;19.10;99.90
40660;DHT22;26753;45.544;9.232;2023-05-10T14:36:06;18.80;99.90
40660;DHT22;26753;45.544;9.232;2023-05-10T14:38:31;18.70;99.90
40660;DHT22;26753;45.544;9.232;2023-05-10T14:40:58;18.80;99.90
40660;DHT22;26753;45.544;9.232;2023-05-10T14:43:23;18.70;99.90
40660;DHT22;26753;45.544;9.232;2023-05-10T14:45:49;18.50;99.90
40660;DHT22;26753;45.544;9.232;2023-05-10T14:48:15;18.50;99.90
40660;DHT22;26753;45.544;9.232;2023-05-10T14:50:45;18.50;99.90
40660;DHT22;26753;45.544;9.232;2023-05-10T14:53:11;18.70;99.90
40660;DHT22;26753;45.544;9.232;2023-05-10T14:55:37;18.80;99.90
40660;DHT22;26753;45.544;9.232;2023-05-10T14:58:03;18.80;99.90
40660;DHT22;26753;45.544;9.232;2023-05-10T15:00:29;18.90;99.90
40660;DHT22;26753;45.544;9.232;2023-05-10T15:02:54;18.90;99.90
40660;DHT22;26753;45.544;9.232;2023-05-10T15:05:20;19.00;99.90
40660;DHT22;26753;45.544;9.232;2023-05-10T15:07:46;19.10;99.90
40660;DHT22;26753;45.544;9.232;2023-05-10T15:10:11;19.20;99.90
40660;DHT22;26753;45.544;9.232;2023-05-10T15:12:37;19.10;99.90
40660;DHT22;26753;45.544;9.232;2023-05-10T15:15:03;19.10;99.90
40660;DHT22;26753;45.544;9.232;2023-05-10T15:17:29;19.10;99.90
40660;DHT22;26753;45.544;9.232;2023-05-10T15:19:55;18.90;99.90
40660;DHT22;26753;45.544;9.232;2023-05-10T15:22:21;18.90;99.90
40660;DHT22;26753;45.544;9.232;2023-05-10T15:24:47;18.80;99.90
40660;DHT22;26753;45.544;9.232;2023-05-10T15:27:13;18.90;99.90
40660;DHT22;26753;45.544;9.232;2023-05-10T15:29:45;18.90;99.90
40660;DHT22;26753;45.544;9.232;2023-05-10T15:32:10;19.00;99.90
40660;DHT22;26753;45.544;9.232;2023-05-10T15:34:36;19.10;99.90
40660;DHT22;26753;45.544;9.232;2023-05-10T15:37:02;19.10;99.90
40660;DHT22;26753;45.544;9.232;2023-05-10T15:39:28;19.00;99.90
40660;DHT22;26753;45.544;9.232;2023-05-10T15:41:54;18.90;99.90
40660;DHT22;26753;45.544;9.232;2023-05-10T15:44:20;18.90;99.90
40660;DHT22;26753;45.544;9.232;2023-05-10T15:46:46;18.90;99.90
40660;DHT22;26753;45.544;9.232;2023-05-10T15:49:12;18.90;99.90
40660;DHT22;26753;45.544;9.232;2023-05-10T15:51:40;19.00;99.90
40660;DHT22;26753;45.544;9.232;2023-05-10T15:54:05;18.80;99.90
40660;DHT22;26753;45.544;9.232;2023-05-10T15:56:34;18.90;99.90
40660;DHT22;26753;45.544;9.232;2023-05-10T15:59:00;18.70;99.90
40660;DHT22;26753;45.544;9.232;2023-05-10T16:01:25;18.80;99.90
40660;DHT22;26753;45.544;9.232;2023-05-10T16:03:51;18.70;99.90
40660;DHT22;26753;45.544;9.232;2023-05-10T16:06:16;18.70;99.90
40660;DHT22;26753;45.544;9.232;2023-05-10T16:08:42;18.60;99.90
40660;DHT22;26753;45.544;9.232;2023-05-10T16:11:07;18.40;99.90
40660;DHT22;26753;45.544;9.232;2023-05-10T16:13:33;18.30;99.90
40660;DHT22;26753;45.544;9.232;2023-05-10T16:16:02;18.50;99.90
40660;DHT22;26753;45.544;9.232;2023-05-10T16:18:27;18.70;99.90
40660;DHT22;26753;45.544;9.232;2023-05-10T16:20:53;18.80;99.90
40660;DHT22;26753;45.544;9.232;2023-05-10T16:23:18;18.80;99.90
40660;DHT22;26753;45.544;9.232;2023-05-10T16:25:44;19.00;99.90
40660;DHT22;26753;45.544;9.232;2023-05-10T16:28:10;19.10;99.90
40660;DHT22;26753;45.544;9.232;2023-05-10T16:30:35;19.30;99.90
40660;DHT22;26753;45.544;9.232;2023-05-10T16:33:01;19.10;99.90
40660;DHT22;26753;45.544;9.232;2023-05-10T16:35:36;19.20;99.90
40660;DHT22;26753;45.544;9.232;2023-05-10T16:38:02;19.20;99.90
40660;DHT22;26753;45.544;9.232;2023-05-10T16:40:28;19.30;99.90
40660;DHT22;26753;45.544;9.232;2023-05-10T16:42:54;19.20;99.90
40660;DHT22;26753;45.544;9.232;2023-05-10T16:45:19;19.30;99.90
40660;DHT22;26753;45.544;9.232;2023-05-10T16:47:45;19.20;99.90
40660;DHT22;26753;45.544;9.232;2023-05-10T16:50:11;19.20;99.90
40660;DHT22;26753;45.544;9.232;2023-05-10T16:52:36;19.20;99.90
40660;DHT22;26753;45.544;9.232;2023-05-10T16:55:04;19.50;99.90
40660;DHT22;26753;45.544;9.232;2023-05-10T16:57:37;19.80;99.90
40660;DHT22;26753;45.544;9.232;2023-05-10T17:00:06;19.90;99.90
40660;DHT22;26753;45.544;9.232;2023-05-10T17:02:32;20.00;99.90
40660;DHT22;26753;45.544;9.232;2023-05-10T17:04:58;20.10;99.90
40660;DHT22;26753;45.544;9.232;2023-05-10T17:07:24;20.00;99.90
40660;DHT22;26753;45.544;9.232;2023-05-10T17:09:49;19.90;99.90
40660;DHT22;26753;45.544;9.232;2023-05-10T17:12:15;19.90;99.90
40660;DHT22;26753;45.544;9.232;2023-05-10T17:14:41;19.70;99.90
40660;DHT22;26753;45.544;9.232;2023-05-10T17:17:07;19.70;99.90
40660;DHT22;26753;45.544;9.232;2023-05-10T17:19:33;19.50;99.90
40660;DHT22;26753;45.544;9.232;2023-05-10T17:21:59;19.30;99.90
40660;DHT22;26753;45.544;9.232;2023-05-10T17:24:24;19.20;99.90